sensor_id;sensor_type;location;lat;lon;timestamp;temperature;humidity
33645;DHT22;19986;48.190;16.366;2023-05-21T00:01:12;20.10;99.90
33645;DHT22;19986;48.190;16.366;2023-05-21T00:03:42;20.10;99.90
33645;DHT22;19986;48.190;16.366;2023-05-21T00:06:11;20.10;99.90
33645;DHT22;19986;48.190;16.366;2023-05-21T00:08:41;20.10;99.90
33645;DHT22;19986;48.190;16.366;2023-05-21T00:11:08;20.10;99.90
33645;DHT22;19986;48.190;16.366;2023-05-21T00:13:34;20.00;99.90
33645;DHT22;19986;48.190;16.366;2023-05-21T00:16:00;20.00;99.90
33645;DHT22;19986;48.190;16.366;2023-05-21T00:18:26;20.00;99.90
33645;DHT22;19986;48.190;16.366;2023-05-21T00:20:53;20.00;99.90
33645;DHT22;19986;48.190;16.366;2023-05-21T00:23:19;19.90;99.90
33645;DHT22;19986;48.190;16.366;2023-05-21T00:25:46;19.90;99.90
33645;DHT22;19986;48.190;16.366;2023-05-21T00:28:12;19.90;99.90
33645;DHT22;19986;48.190;16.366;2023-05-21T00:30:38;19.90;99.90
33645;DHT22;19986;48.190;16.366;2023-05-21T00:33:07;19.90;99.90
33645;DHT22;19986;48.190;16.366;2023-05-21T00:35:35;19.90;99.90
33645;DHT22;19986;48.190;16.366;2023-05-21T00:38:01;19.90;99.90
33645;DHT22;19986;48.190;16.366;2023-05-21T00:40:27;19.90;99.90
33645;DHT22;19986;48.190;16.366;2023-05-21T00:42:54;19.90;99.90
33645;DHT22;19986;48.190;16.366;2023-05-21T00:45:22;19.80;99.90
33645;DHT22;19986;48.190;16.366;2023-05-21T00:47:50;19.90;99.90
33645;DHT22;19986;48.190;16.366;2023-05-21T00:50:20;19.80;99.90
33645;DHT22;19986;48.190;16.366;2023-05-21T00:52:47;19.80;99.90
33645;DHT22;19986;48.190;16.366;2023-05-21T00:55:15;19.80;99.90
33645;DHT22;19986;48.190;16.366;2023-05-21T00:57:41;19.80;99.90
33645;DHT22;19986;48.190;16.366;2023-05-21T01:00:07;19.70;99.90
33645;DHT22;19986;48.190;16.366;2023-05-21T01:02:35;19.70;99.90
33645;DHT22;19986;48.190;16.366;2023-05-21T01:05:03;19.70;99.90
33645;DHT22;19986;48.190;16.366;2023-05-21T01:07:32;19.70;99.90
33645;DHT22;19986;48.190;16.366;2023-05-21T01:10:03;19.60;99.90
33645;DHT22;19986;48.190;16.366;2023-05-21T01:12:32;19.70;99.90
33645;DHT22;19986;48.190;16.366;2023-05-21T01:15:00;19.60;99.90
33645;DHT22;19986;48.190;16.366;2023-05-21T01:17:29;19.60;99.90
33645;DHT22;19986;48.190;16.366;2023-05-21T01:19:59;19.60;99.90
33645;DHT22;19986;48.190;16.366;2023-05-21T01:22:28;19.50;99.90
33645;DHT22;19986;48.190;16.366;2023-05-21T01:24:56;19.50;99.90
33645;DHT22;19986;48.190;16.366;2023-05-21T01:27:22;19.50;99.90
33645;DHT22;19986;48.190;16.366;2023-05-21T01:29:48;19.40;99.90
33645;DHT22;19986;48.190;16.366;2023-05-21T01:35:08;19.40;99.90
33645;DHT22;19986;48.190;16.366;2023-05-21T01:40:52;19.20;99.90
33645;DHT22;19986;48.190;16.366;2023-05-21T01:43:31;19.20;99.90
33645;DHT22;19986;48.190;16.366;2023-05-21T01:46:00;19.00;99.90
33645;DHT22;19986;48.190;16.366;2023-05-21T01:48:28;19.00;99.90
33645;DHT22;19986;48.190;16.366;2023-05-21T01:50:57;18.90;99.90
33645;DHT22;19986;48.190;16.366;2023-05-21T01:53:24;18.80;99.90
33645;DHT22;19986;48.190;16.366;2023-05-21T01:55:51;18.80;99.90
33645;DHT22;19986;48.190;16.366;2023-05-21T01:58:19;18.80;99.90
33645;DHT22;19986;48.190;16.366;2023-05-21T02:00:48;18.80;99.90
33645;DHT22;19986;48.190;16.366;2023-05-21T02:03:19;18.80;99.90
33645;DHT22;19986;48.190;16.366;2023-05-21T02:05:45;18.70;99.90
33645;DHT22;19986;48.190;16.366;2023-05-21T02:08:14;18.60;99.90
33645;DHT22;19986;48.190;16.366;2023-05-21T02:10:40;18.60;99.90
33645;DHT22;19986;48.190;16.366;2023-05-21T02:13:07;18.60;99.90
33645;DHT22;19986;48.190;16.366;2023-05-21T02:15:34;18.60;99.90
33645;DHT22;19986;48.190;16.366;2023-05-21T02:18:00;18.60;99.90
33645;DHT22;19986;48.190;16.366;2023-05-21T02:20:31;18.50;99.90
33645;DHT22;19986;48.190;16.366;2023-05-21T02:22:57;18.50;99.90
33645;DHT22;19986;48.190;16.366;2023-05-21T02:25:24;18.50;99.90
33645;DHT22;19986;48.190;16.366;2023-05-21T02:27:51;18.50;99.90
33645;DHT22;19986;48.190;16.366;2023-05-21T02:30:19;18.50;99.90
33645;DHT22;19986;48.190;16.366;2023-05-21T02:32:47;18.40;99.90
33645;DHT22;19986;48.190;16.366;2023-05-21T02:35:14;18.40;99.90
33645;DHT22;19986;48.190;16.366;2023-05-21T02:37:40;18.40;99.90
33645;DHT22;19986;48.190;16.366;2023-05-21T02:40:07;18.40;99.90
33645;DHT22;19986;48.190;16.366;2023-05-21T02:42:39;18.40;99.90
33645;DHT22;19986;48.190;16.366;2023-05-21T02:45:07;18.30;99.90
33645;DHT22;19986;48.190;16.366;2023-05-21T02:47:34;18.30;99.90
33645;DHT22;19986;48.190;16.366;2023-05-21T02:50:01;18.20;99.90
33645;DHT22;19986;48.190;16.366;2023-05-21T02:52:27;18.20;99.90
33645;DHT22;19986;48.190;16.366;2023-05-21T02:54:53;18.10;99.90
33645;DHT22;19986;48.190;16.366;2023-05-21T02:57:19;18.10;99.90
33645;DHT22;19986;48.190;16.366;2023-05-21T02:59:45;18.10;99.90
33645;DHT22;19986;48.190;16.366;2023-05-21T03:02:12;18.00;99.90
33645;DHT22;19986;48.190;16.366;2023-05-21T03:04:38;18.00;99.90
33645;DHT22;19986;48.190;16.366;2023-05-21T03:07:14;18.00;99.90
33645;DHT22;19986;48.190;16.366;2023-05-21T03:09:42;18.00;99.90
33645;DHT22;19986;48.190;16.366;2023-05-21T03:12:09;18.00;99.90
33645;DHT22;19986;48.190;16.366;2023-05-21T03:14:35;18.00;99.90
33645;DHT22;19986;48.190;16.366;2023-05-21T03:17:02;18.00;99.90
33645;DHT22;19986;48.190;16.366;2023-05-21T03:19:33;18.00;99.90
33645;DHT22;19986;48.190;16.366;2023-05-21T03:22:01;18.00;99.90
33645;DHT22;19986;48.190;16.366;2023-05-21T03:24:28;18.00;99.90
33645;DHT22;19986;48.190;16.366;2023-05-21T03:26:56;18.00;99.90
33645;DHT22;19986;48.190;16.366;2023-05-21T03:29:22;18.00;99.90
33645;DHT22;19986;48.190;16.366;2023-05-21T03:31:48;18.00;99.90
33645;DHT22;19986;48.190;16.366;2023-05-21T03:34:14;17.90;99.90
33645;DHT22;19986;48.190;16.366;2023-05-21T03:36:40;17.90;99.90
33645;DHT22;19986;48.190;16.366;2023-05-21T03:39:06;17.90;99.90
33645;DHT22;19986;48.190;16.366;2023-05-21T03:41:32;17.90;99.90
33645;DHT22;19986;48.190;16.366;2023-05-21T03:43:58;18.00;99.90
33645;DHT22;19986;48.190;16.366;2023-05-21T03:46:24;18.10;99.90
33645;DHT22;19986;48.190;16.366;2023-05-21T03:48:51;18.10;99.90
33645;DHT22;19986;48.190;16.366;2023-05-21T03:51:17;18.20;99.90
33645;DHT22;19986;48.190;16.366;2023-05-21T03:53:42;18.20;99.90
33645;DHT22;19986;48.190;16.366;2023-05-21T03:56:08;18.20;99.90
33645;DHT22;19986;48.190;16.366;2023-05-21T03:58:34;18.10;99.90
33645;DHT22;19986;48.190;16.366;2023-05-21T04:01:01;18.20;99.90
33645;DHT22;19986;48.190;16.366;2023-05-21T04:03:29;18.20;99.90
33645;DHT22;19986;48.190;16.366;2023-05-21T04:06:12;18.20;99.90
33645;DHT22;19986;48.190;16.366;2023-05-21T04:08:38;18.30;99.90
33645;DHT22;19986;48.190;16.366;2023-05-21T04:11:04;18.30;99.90
33645;DHT22;19986;48.190;16.366;2023-05-21T04:13:30;18.40;99.90
33645;DHT22;19986;48.190;16.366;2023-05-21T04:15:56;18.40;99.90
33645;DHT22;19986;48.190;16.366;2023-05-21T04:18:22;18.50;99.90
33645;DHT22;19986;48.190;16.366;2023-05-21T04:20:50;18.50;99.90
33645;DHT22;19986;48.190;16.366;2023-05-21T04:23:16;18.60;99.90
33645;DHT22;19986;48.190;16.366;2023-05-21T04:25:42;18.60;99.90
33645;DHT22;19986;48.190;16.366;2023-05-21T04:28:08;18.60;99.90
33645;DHT22;19986;48.190;16.366;2023-05-21T04:30:34;18.70;99.90
33645;DHT22;19986;48.190;16.366;2023-05-21T04:33:01;18.70;99.90
33645;DHT22;19986;48.190;16.366;2023-05-21T04:35:27;18.70;99.90
33645;DHT22;19986;48.190;16.366;2023-05-21T04:37:54;18.80;99.90
33645;DHT22;19986;48.190;16.366;2023-05-21T04:40:20;18.90;99.90
33645;DHT22;19986;48.190;16.366;2023-05-21T04:42:51;19.00;99.90
33645;DHT22;19986;48.190;16.366;2023-05-21T04:45:18;19.00;99.90
33645;DHT22;19986;48.190;16.366;2023-05-21T04:47:44;19.10;99.90
33645;DHT22;19986;48.190;16.366;2023-05-21T04:50:10;19.20;99.90
33645;DHT22;19986;48.190;16.366;2023-05-21T04:52:37;19.30;99.90
33645;DHT22;19986;48.190;16.366;2023-05-21T04:55:06;19.40;99.90
33645;DHT22;19986;48.190;16.366;2023-05-21T04:57:33;19.60;99.90
33645;DHT22;19986;48.190;16.366;2023-05-21T05:00:00;20.10;99.90
33645;DHT22;19986;48.190;16.366;2023-05-21T05:02:26;20.50;99.90
33645;DHT22;19986;48.190;16.366;2023-05-21T05:04:53;21.60;99.90
33645;DHT22;19986;48.190;16.366;2023-05-21T05:07:19;23.50;99.90
33645;DHT22;19986;48.190;16.366;2023-05-21T05:09:45;25.00;99.90
33645;DHT22;19986;48.190;16.366;2023-05-21T05:12:11;25.00;99.90
33645;DHT22;19986;48.190;16.366;2023-05-21T05:14:37;24.30;99.90
33645;DHT22;19986;48.190;16.366;2023-05-21T05:17:03;23.50;99.90
33645;DHT22;19986;48.190;16.366;2023-05-21T05:19:28;22.90;99.90
33645;DHT22;19986;48.190;16.366;2023-05-21T05:21:54;22.60;99.90
33645;DHT22;19986;48.190;16.366;2023-05-21T05:24:20;22.30;99.90
33645;DHT22;19986;48.190;16.366;2023-05-21T05:26:46;22.00;99.90
33645;DHT22;19986;48.190;16.366;2023-05-21T05:29:12;21.80;99.90
33645;DHT22;19986;48.190;16.366;2023-05-21T05:31:38;21.80;99.90
33645;DHT22;19986;48.190;16.366;2023-05-21T05:34:04;21.80;99.90
33645;DHT22;19986;48.190;16.366;2023-05-21T05:36:30;21.80;99.90
33645;DHT22;19986;48.190;16.366;2023-05-21T05:38:56;21.80;99.90
33645;DHT22;19986;48.190;16.366;2023-05-21T05:41:22;21.80;99.90
33645;DHT22;19986;48.190;16.366;2023-05-21T05:43:48;21.80;99.90
33645;DHT22;19986;48.190;16.366;2023-05-21T05:46:14;21.80;99.90
33645;DHT22;19986;48.190;16.366;2023-05-21T05:48:47;21.90;99.90
33645;DHT22;19986;48.190;16.366;2023-05-21T05:51:13;21.90;99.90
33645;DHT22;19986;48.190;16.366;2023-05-21T05:53:41;21.90;99.90
33645;DHT22;19986;48.190;16.366;2023-05-21T05:56:08;22.00;99.90
33645;DHT22;19986;48.190;16.366;2023-05-21T05:58:34;22.00;99.90
33645;DHT22;19986;48.190;16.366;2023-05-21T06:01:00;22.10;99.90
33645;DHT22;19986;48.190;16.366;2023-05-21T06:03:27;22.10;99.90
33645;DHT22;19986;48.190;16.366;2023-05-21T06:05:54;22.20;99.90
33645;DHT22;19986;48.190;16.366;2023-05-21T06:08:21;22.20;99.90
33645;DHT22;19986;48.190;16.366;2023-05-21T06:10:47;22.30;99.90
33645;DHT22;19986;48.190;16.366;2023-05-21T06:13:13;22.30;99.90
33645;DHT22;19986;48.190;16.366;2023-05-21T06:15:39;22.40;99.90
33645;DHT22;19986;48.190;16.366;2023-05-21T06:18:07;22.50;99.90
33645;DHT22;19986;48.190;16.366;2023-05-21T06:20:33;22.50;99.90
33645;DHT22;19986;48.190;16.366;2023-05-21T06:22:59;22.60;99.90
33645;DHT22;19986;48.190;16.366;2023-05-21T06:25:25;22.60;99.90
33645;DHT22;19986;48.190;16.366;2023-05-21T06:27:51;22.60;99.90
33645;DHT22;19986;48.190;16.366;2023-05-21T06:30:17;22.60;99.90
33645;DHT22;19986;48.190;16.366;2023-05-21T06:32:43;22.60;99.90
33645;DHT22;19986;48.190;16.366;2023-05-21T06:35:09;22.70;99.90
33645;DHT22;19986;48.190;16.366;2023-05-21T06:37:35;22.80;99.90
33645;DHT22;19986;48.190;16.366;2023-05-21T06:40:01;22.90;99.90
33645;DHT22;19986;48.190;16.366;2023-05-21T06:42:27;23.00;99.90
33645;DHT22;19986;48.190;16.366;2023-05-21T06:44:53;23.00;99.90
33645;DHT22;19986;48.190;16.366;2023-05-21T06:47:18;23.00;99.90
33645;DHT22;19986;48.190;16.366;2023-05-21T06:49:46;23.20;99.90
33645;DHT22;19986;48.190;16.366;2023-05-21T06:52:12;23.10;99.90
33645;DHT22;19986;48.190;16.366;2023-05-21T06:54:38;23.20;99.90
33645;DHT22;19986;48.190;16.366;2023-05-21T06:57:04;23.30;99.90
33645;DHT22;19986;48.190;16.366;2023-05-21T06:59:30;23.30;99.90
33645;DHT22;19986;48.190;16.366;2023-05-21T07:01:56;23.40;99.90
33645;DHT22;19986;48.190;16.366;2023-05-21T07:04:22;23.40;99.90
33645;DHT22;19986;48.190;16.366;2023-05-21T07:06:48;23.30;99.90
33645;DHT22;19986;48.190;16.366;2023-05-21T07:09:14;23.40;99.90
33645;DHT22;19986;48.190;16.366;2023-05-21T07:11:55;23.40;99.90
33645;DHT22;19986;48.190;16.366;2023-05-21T07:14:24;23.40;99.90
33645;DHT22;19986;48.190;16.366;2023-05-21T07:16:51;23.50;99.90
33645;DHT22;19986;48.190;16.366;2023-05-21T07:19:16;23.50;99.90
33645;DHT22;19986;48.190;16.366;2023-05-21T07:21:42;23.60;99.90
33645;DHT22;19986;48.190;16.366;2023-05-21T07:24:08;23.60;99.90
33645;DHT22;19986;48.190;16.366;2023-05-21T07:26:34;23.70;99.90
33645;DHT22;19986;48.190;16.366;2023-05-21T07:29:00;23.80;99.90
33645;DHT22;19986;48.190;16.366;2023-05-21T07:31:26;23.90;99.90
33645;DHT22;19986;48.190;16.366;2023-05-21T07:33:52;23.90;99.90
33645;DHT22;19986;48.190;16.366;2023-05-21T07:36:19;23.90;99.90
33645;DHT22;19986;48.190;16.366;2023-05-21T07:38:47;24.00;99.90
33645;DHT22;19986;48.190;16.366;2023-05-21T07:41:12;24.10;99.90
33645;DHT22;19986;48.190;16.366;2023-05-21T07:43:38;24.20;99.90
33645;DHT22;19986;48.190;16.366;2023-05-21T07:46:04;24.30;99.90
33645;DHT22;19986;48.190;16.366;2023-05-21T07:48:31;24.30;99.90
33645;DHT22;19986;48.190;16.366;2023-05-21T07:50:57;24.40;99.90
33645;DHT22;19986;48.190;16.366;2023-05-21T07:53:23;24.40;99.90
33645;DHT22;19986;48.190;16.366;2023-05-21T07:55:49;24.40;99.90
33645;DHT22;19986;48.190;16.366;2023-05-21T07:58:17;24.40;99.90
33645;DHT22;19986;48.190;16.366;2023-05-21T08:00:45;24.50;99.90
33645;DHT22;19986;48.190;16.366;2023-05-21T08:03:15;24.50;99.90
33645;DHT22;19986;48.190;16.366;2023-05-21T08:05:45;24.40;99.90
33645;DHT22;19986;48.190;16.366;2023-05-21T08:08:15;24.50;99.90
33645;DHT22;19986;48.190;16.366;2023-05-21T08:10:42;24.60;99.90
33645;DHT22;19986;48.190;16.366;2023-05-21T08:13:12;24.70;99.90
33645;DHT22;19986;48.190;16.366;2023-05-21T08:15:53;24.70;99.90
33645;DHT22;19986;48.190;16.366;2023-05-21T08:18:19;24.80;99.90
33645;DHT22;19986;48.190;16.366;2023-05-21T08:20:45;24.80;99.90
33645;DHT22;19986;48.190;16.366;2023-05-21T08:23:11;24.90;99.90
33645;DHT22;19986;48.190;16.366;2023-05-21T08:25:36;25.00;99.90
33645;DHT22;19986;48.190;16.366;2023-05-21T08:28:02;25.00;99.90
33645;DHT22;19986;48.190;16.366;2023-05-21T08:30:28;25.10;99.90
33645;DHT22;19986;48.190;16.366;2023-05-21T08:32:54;25.10;99.90
33645;DHT22;19986;48.190;16.366;2023-05-21T08:35:20;25.20;99.90
33645;DHT22;19986;48.190;16.366;2023-05-21T08:37:46;25.30;99.90
33645;DHT22;19986;48.190;16.366;2023-05-21T08:40:12;25.30;99.90
33645;DHT22;19986;48.190;16.366;2023-05-21T08:42:45;25.40;99.90
33645;DHT22;19986;48.190;16.366;2023-05-21T08:45:13;25.50;99.90
33645;DHT22;19986;48.190;16.366;2023-05-21T08:47:42;25.40;99.90
33645;DHT22;19986;48.190;16.366;2023-05-21T08:50:12;25.50;99.90
33645;DHT22;19986;48.190;16.366;2023-05-21T08:52:39;25.60;99.90
33645;DHT22;19986;48.190;16.366;2023-05-21T08:55:06;25.80;99.90
33645;DHT22;19986;48.190;16.366;2023-05-21T08:57:32;26.30;99.90
33645;DHT22;19986;48.190;16.366;2023-05-21T08:59:59;27.50;99.90
33645;DHT22;19986;48.190;16.366;2023-05-21T09:02:26;29.50;99.90
33645;DHT22;19986;48.190;16.366;2023-05-21T09:04:53;31.60;99.90
33645;DHT22;19986;48.190;16.366;2023-05-21T09:07:26;33.50;97.90
33645;DHT22;19986;48.190;16.366;2023-05-21T09:10:13;34.90;95.10
33645;DHT22;19986;48.190;16.366;2023-05-21T09:12:43;35.90;92.30
33645;DHT22;19986;48.190;16.366;2023-05-21T09:15:12;36.90;91.60
33645;DHT22;19986;48.190;16.366;2023-05-21T09:17:41;37.90;89.20
33645;DHT22;19986;48.190;16.366;2023-05-21T09:22:39;37.90;80.90
33645;DHT22;19986;48.190;16.366;2023-05-21T09:25:06;37.80;79.90
33645;DHT22;19986;48.190;16.366;2023-05-21T09:27:34;38.20;79.50
33645;DHT22;19986;48.190;16.366;2023-05-21T09:30:04;38.20;79.40
33645;DHT22;19986;48.190;16.366;2023-05-21T09:32:31;38.40;76.80
33645;DHT22;19986;48.190;16.366;2023-05-21T09:35:11;37.80;76.20
33645;DHT22;19986;48.190;16.366;2023-05-21T09:37:41;37.80;77.00
33645;DHT22;19986;48.190;16.366;2023-05-21T09:40:12;37.70;77.30
33645;DHT22;19986;48.190;16.366;2023-05-21T09:42:39;38.10;76.70
33645;DHT22;19986;48.190;16.366;2023-05-21T09:45:09;38.60;75.70
33645;DHT22;19986;48.190;16.366;2023-05-21T09:47:42;38.90;75.30
33645;DHT22;19986;48.190;16.366;2023-05-21T09:50:10;39.30;74.00
33645;DHT22;19986;48.190;16.366;2023-05-21T09:52:37;39.70;72.10
33645;DHT22;19986;48.190;16.366;2023-05-21T09:55:05;39.10;71.80
33645;DHT22;19986;48.190;16.366;2023-05-21T09:57:31;38.70;72.90
33645;DHT22;19986;48.190;16.366;2023-05-21T09:59:57;38.40;73.20
33645;DHT22;19986;48.190;16.366;2023-05-21T10:02:26;38.30;74.00
33645;DHT22;19986;48.190;16.366;2023-05-21T10:04:52;38.20;72.10
33645;DHT22;19986;48.190;16.366;2023-05-21T10:07:21;38.30;73.00
33645;DHT22;19986;48.190;16.366;2023-05-21T10:09:53;38.80;72.00
33645;DHT22;19986;48.190;16.366;2023-05-21T10:12:23;39.20;71.10
33645;DHT22;19986;48.190;16.366;2023-05-21T10:15:00;39.10;70.50
33645;DHT22;19986;48.190;16.366;2023-05-21T10:17:29;38.90;70.00
33645;DHT22;19986;48.190;16.366;2023-05-21T10:19:55;39.10;70.80
33645;DHT22;19986;48.190;16.366;2023-05-21T10:22:23;39.30;70.50
33645;DHT22;19986;48.190;16.366;2023-05-21T10:24:51;39.60;69.60
33645;DHT22;19986;48.190;16.366;2023-05-21T10:27:22;39.40;69.10
33645;DHT22;19986;48.190;16.366;2023-05-21T10:29:48;38.80;68.50
33645;DHT22;19986;48.190;16.366;2023-05-21T10:32:15;38.50;70.50
33645;DHT22;19986;48.190;16.366;2023-05-21T10:34:42;39.10;70.00
33645;DHT22;19986;48.190;16.366;2023-05-21T10:37:08;39.30;68.70
33645;DHT22;19986;48.190;16.366;2023-05-21T10:39:38;39.20;69.00
33645;DHT22;19986;48.190;16.366;2023-05-21T10:42:17;39.30;68.80
33645;DHT22;19986;48.190;16.366;2023-05-21T10:45:39;39.50;68.00
33645;DHT22;19986;48.190;16.366;2023-05-21T10:53:23;39.30;65.90
33645;DHT22;19986;48.190;16.366;2023-05-21T10:56:15;39.10;66.70
33645;DHT22;19986;48.190;16.366;2023-05-21T11:01:21;38.70;67.10
33645;DHT22;19986;48.190;16.366;2023-05-21T11:03:48;38.50;67.70
33645;DHT22;19986;48.190;16.366;2023-05-21T11:06:25;38.60;67.60
33645;DHT22;19986;48.190;16.366;2023-05-21T11:08:52;38.40;67.00
33645;DHT22;19986;48.190;16.366;2023-05-21T11:14:30;38.10;67.30
33645;DHT22;19986;48.190;16.366;2023-05-21T11:17:09;38.00;67.60
33645;DHT22;19986;48.190;16.366;2023-05-21T11:19:43;37.70;67.70
33645;DHT22;19986;48.190;16.366;2023-05-21T11:22:22;37.90;68.30
33645;DHT22;19986;48.190;16.366;2023-05-21T11:24:49;38.00;66.90
33645;DHT22;19986;48.190;16.366;2023-05-21T11:27:40;37.40;68.50
33645;DHT22;19986;48.190;16.366;2023-05-21T11:30:17;37.20;69.40
33645;DHT22;19986;48.190;16.366;2023-05-21T11:33:16;37.20;68.80
33645;DHT22;19986;48.190;16.366;2023-05-21T11:38:20;37.10;69.70
33645;DHT22;19986;48.190;16.366;2023-05-21T11:40:50;37.40;69.20
33645;DHT22;19986;48.190;16.366;2023-05-21T11:43:20;37.10;69.00
33645;DHT22;19986;48.190;16.366;2023-05-21T11:45:46;36.70;67.80
33645;DHT22;19986;48.190;16.366;2023-05-21T11:48:15;36.10;68.60
33645;DHT22;19986;48.190;16.366;2023-05-21T11:50:42;35.80;69.20
33645;DHT22;19986;48.190;16.366;2023-05-21T11:53:08;35.90;69.30
33645;DHT22;19986;48.190;16.366;2023-05-21T11:55:40;35.90;69.30
33645;DHT22;19986;48.190;16.366;2023-05-21T11:58:12;35.90;69.90
33645;DHT22;19986;48.190;16.366;2023-05-21T12:00:39;36.10;70.80
33645;DHT22;19986;48.190;16.366;2023-05-21T12:03:05;36.50;70.90
33645;DHT22;19986;48.190;16.366;2023-05-21T12:05:48;36.70;70.80
33645;DHT22;19986;48.190;16.366;2023-05-21T12:08:21;36.50;70.80
33645;DHT22;19986;48.190;16.366;2023-05-21T12:10:57;36.00;70.50
33645;DHT22;19986;48.190;16.366;2023-05-21T12:13:23;35.60;71.60
33645;DHT22;19986;48.190;16.366;2023-05-21T12:15:52;35.40;71.70
33645;DHT22;19986;48.190;16.366;2023-05-21T12:18:19;35.40;71.60
33645;DHT22;19986;48.190;16.366;2023-05-21T12:20:45;35.10;71.20
33645;DHT22;19986;48.190;16.366;2023-05-21T12:23:25;34.80;72.20
33645;DHT22;19986;48.190;16.366;2023-05-21T12:25:51;34.50;72.80
33645;DHT22;19986;48.190;16.366;2023-05-21T12:28:20;33.90;73.50
33645;DHT22;19986;48.190;16.366;2023-05-21T12:30:47;33.60;75.00
33645;DHT22;19986;48.190;16.366;2023-05-21T12:33:13;33.70;75.20
33645;DHT22;19986;48.190;16.366;2023-05-21T12:35:45;33.90;75.00
33645;DHT22;19986;48.190;16.366;2023-05-21T12:38:14;33.40;73.70
33645;DHT22;19986;48.190;16.366;2023-05-21T12:40:41;33.00;75.20
33645;DHT22;19986;48.190;16.366;2023-05-21T12:43:08;32.80;76.60
33645;DHT22;19986;48.190;16.366;2023-05-21T12:45:34;32.60;77.00
33645;DHT22;19986;48.190;16.366;2023-05-21T12:48:02;32.30;77.50
33645;DHT22;19986;48.190;16.366;2023-05-21T12:50:28;32.10;77.70
33645;DHT22;19986;48.190;16.366;2023-05-21T12:52:54;31.90;76.40
33645;DHT22;19986;48.190;16.366;2023-05-21T12:55:24;31.60;76.70
33645;DHT22;19986;48.190;16.366;2023-05-21T12:58:04;31.50;77.80
33645;DHT22;19986;48.190;16.366;2023-05-21T13:00:32;31.50;78.30
33645;DHT22;19986;48.190;16.366;2023-05-21T13:02:58;31.30;77.30
33645;DHT22;19986;48.190;16.366;2023-05-21T13:05:25;31.10;76.90
33645;DHT22;19986;48.190;16.366;2023-05-21T13:07:51;31.00;76.50
33645;DHT22;19986;48.190;16.366;2023-05-21T13:10:17;30.80;77.10
33645;DHT22;19986;48.190;16.366;2023-05-21T13:12:43;30.80;77.40
33645;DHT22;19986;48.190;16.366;2023-05-21T13:15:24;30.70;78.00
33645;DHT22;19986;48.190;16.366;2023-05-21T13:17:53;30.70;78.30
33645;DHT22;19986;48.190;16.366;2023-05-21T13:20:19;30.80;78.20
33645;DHT22;19986;48.190;16.366;2023-05-21T13:22:50;30.70;79.10
33645;DHT22;19986;48.190;16.366;2023-05-21T13:25:24;30.80;79.90
33645;DHT22;19986;48.190;16.366;2023-05-21T13:27:53;30.70;76.10
33645;DHT22;19986;48.190;16.366;2023-05-21T13:30:21;30.60;75.50
33645;DHT22;19986;48.190;16.366;2023-05-21T13:32:47;30.50;76.10
33645;DHT22;19986;48.190;16.366;2023-05-21T13:35:13;30.40;75.70
33645;DHT22;19986;48.190;16.366;2023-05-21T13:37:41;30.40;75.90
33645;DHT22;19986;48.190;16.366;2023-05-21T13:40:09;30.40;76.10
33645;DHT22;19986;48.190;16.366;2023-05-21T13:42:35;30.60;76.30
33645;DHT22;19986;48.190;16.366;2023-05-21T13:45:07;30.50;77.10
33645;DHT22;19986;48.190;16.366;2023-05-21T13:47:33;30.40;77.60
33645;DHT22;19986;48.190;16.366;2023-05-21T13:49:59;30.40;77.50
33645;DHT22;19986;48.190;16.366;2023-05-21T13:52:25;30.50;77.00
33645;DHT22;19986;48.190;16.366;2023-05-21T13:54:51;30.40;77.30
33645;DHT22;19986;48.190;16.366;2023-05-21T13:57:17;30.40;77.50
33645;DHT22;19986;48.190;16.366;2023-05-21T13:59:43;30.50;76.70
33645;DHT22;19986;48.190;16.366;2023-05-21T14:02:09;30.40;75.80
33645;DHT22;19986;48.190;16.366;2023-05-21T14:04:35;30.30;76.20
33645;DHT22;19986;48.190;16.366;2023-05-21T14:07:01;30.30;77.10
33645;DHT22;19986;48.190;16.366;2023-05-21T14:09:29;30.30;77.80
33645;DHT22;19986;48.190;16.366;2023-05-21T14:11:56;30.30;78.20
33645;DHT22;19986;48.190;16.366;2023-05-21T14:14:24;30.40;78.20
33645;DHT22;19986;48.190;16.366;2023-05-21T14:16:51;30.60;76.70
33645;DHT22;19986;48.190;16.366;2023-05-21T14:19:17;30.60;76.80
33645;DHT22;19986;48.190;16.366;2023-05-21T14:21:44;30.60;77.10
33645;DHT22;19986;48.190;16.366;2023-05-21T14:24:10;30.70;77.30
33645;DHT22;19986;48.190;16.366;2023-05-21T14:26:39;30.70;75.10
33645;DHT22;19986;48.190;16.366;2023-05-21T14:29:05;30.70;75.50
33645;DHT22;19986;48.190;16.366;2023-05-21T14:31:31;30.70;76.40
33645;DHT22;19986;48.190;16.366;2023-05-21T14:33:57;30.70;77.40
33645;DHT22;19986;48.190;16.366;2023-05-21T14:36:23;30.70;77.50
33645;DHT22;19986;48.190;16.366;2023-05-21T14:38:49;30.70;77.10
33645;DHT22;19986;48.190;16.366;2023-05-21T14:41:15;30.60;77.30
33645;DHT22;19986;48.190;16.366;2023-05-21T14:43:41;30.50;78.40
33645;DHT22;19986;48.190;16.366;2023-05-21T14:46:06;30.60;79.50
33645;DHT22;19986;48.190;16.366;2023-05-21T14:48:32;30.70;79.80
33645;DHT22;19986;48.190;16.366;2023-05-21T14:50:58;30.80;79.80
33645;DHT22;19986;48.190;16.366;2023-05-21T14:53:24;31.00;79.40
33645;DHT22;19986;48.190;16.366;2023-05-21T14:55:50;30.90;79.20
33645;DHT22;19986;48.190;16.366;2023-05-21T14:58:18;30.90;79.60
33645;DHT22;19986;48.190;16.366;2023-05-21T15:00:44;30.90;79.80
33645;DHT22;19986;48.190;16.366;2023-05-21T15:03:09;31.00;79.50
33645;DHT22;19986;48.190;16.366;2023-05-21T15:05:37;31.00;79.30
33645;DHT22;19986;48.190;16.366;2023-05-21T15:08:03;31.10;79.20
33645;DHT22;19986;48.190;16.366;2023-05-21T15:10:30;31.10;78.90
33645;DHT22;19986;48.190;16.366;2023-05-21T15:12:56;31.10;78.10
33645;DHT22;19986;48.190;16.366;2023-05-21T15:15:22;31.00;78.40
33645;DHT22;19986;48.190;16.366;2023-05-21T15:17:49;30.90;78.30
33645;DHT22;19986;48.190;16.366;2023-05-21T15:20:15;30.90;77.70
33645;DHT22;19986;48.190;16.366;2023-05-21T15:22:42;30.70;78.60
33645;DHT22;19986;48.190;16.366;2023-05-21T15:25:08;30.60;79.10
33645;DHT22;19986;48.190;16.366;2023-05-21T15:27:37;30.50;78.90
33645;DHT22;19986;48.190;16.366;2023-05-21T15:30:03;30.40;78.90
33645;DHT22;19986;48.190;16.366;2023-05-21T15:32:29;30.40;79.00
33645;DHT22;19986;48.190;16.366;2023-05-21T15:34:56;30.40;79.10
33645;DHT22;19986;48.190;16.366;2023-05-21T15:37:21;30.40;79.40
33645;DHT22;19986;48.190;16.366;2023-05-21T15:39:49;30.40;79.30
33645;DHT22;19986;48.190;16.366;2023-05-21T15:42:18;30.30;80.00